Willow Lake, SD

04:26 CDT le 16 septembre 2014 (GMT -0500)
Iroquois SD | Change Station
CLOSE
Current Station
Stations météorologiques personnelles
Location: Iroquois, SD
Altitude: 1427 ft
Stations météo à proximité

Alt. 1427 ft 44.45 °N, 97.86 °W | Updated 9 minutes ago

Ciel dégagé
Ciel dégagé
36.1 ° F
Paraît 36 ° F
N
2.7
Vent Variable Vent de SE

Aujourd'hui
Haut(e) -- | Bas -- ° F
--% Risque de précip.
Hier
Haut(e) -- | Bas -- ° F
Precip. -- pouce
7:11 AM 7:39 PM
Lune gibbeuse décroissante, 47% visible
Pression 30.19 pouce
Visibilité 10.0 Miles terrestres
Nuages Ciel dégagé
Refroidissement éolien 36 ° F
Point de rosée 34 ° F
Humidité 94%
Précipitations 0.00 pouce
Profondeur de la couche neigeuse 0 in
UV 0 sur 12
Pollen 4.90 sur 12
Qualité de l'air Non disponible.
Flu Activity Non disponible.
METAR KHON 160855Z AUTO 16004KT 10SM CLR 05/02 A3017 RMK AO2 SLP221 T00500022 58007

More Conditions Fewer Conditions

Pression 30.19 pouce
Visibilité 10.0 Miles terrestres
Nuages Ciel dégagé
Refroidissement éolien 36 ° F
Point de rosée 34 ° F
Humidité 94%
Précipitations 0.00 pouce
Profondeur de la couche neigeuse 0 in
UV 0 sur 12
Pollen 4.90 sur 12
Qualité de l'air Non disponible.
Flu Activity Non disponible.
METAR KHON 160855Z AUTO 16004KT 10SM CLR 05/02 A3017 RMK AO2 SLP221 T00500022 58007

More Conditions Fewer Conditions

10-Day Weather Forecast

Almanac

Astronomie

Sep. 16, 2014 Lever Coucher
Temps réel 07:11 CDT 19:39 CDT
Crépuscule civil 06:41 CDT 20:08 CDT
Crépuscule nautique 06:07 CDT 20:43 CDT
Crépuscule astronomique 05:31 CDT 21:19 CDT
Lune 00:11 CDT 15:14 CDT
Durée de lumière visible 13h 27m
Longueur du jour
12h 28m
Tomorrow will be 3m 4s shorter.
Lune gibbeuse décroissante, 47% of the Moon is Illuminated
Aujourd'hui
Lune gibbeuse décroissante
Sep 24
Nouveau
Oct 1
Premier quartier
Oct 8
Pleine lune
Oct 15
Dernier quartier

Extrêmes aujourd'hui

State Highs State Lows

Community

WunderPhotos

Upload Photos

1,753,714 Photos téléchargées !

WunderBlogs® & News

Nearby

Épaisseur de neige

Station Depth Altitude
Blind Park 0 in 6890 ft

Activité sismique

Ville Distance Mag. Time & Date
No recent earthquake activity has been reported nearby.
Minimum magnitude displayed is 2.5.

Températures des eaux côtières

Lieu Température
Aucun rapport de station

Stations météo à proximité